sensor_id;sensor_type;location;lat;lon;timestamp;P1;durP1;ratioP1;P2;durP2;ratioP2
5245;SDS011;54412;51.206;6.888;2023-11-21T00:00:18;11.70;;;8.00;;
5245;SDS011;54412;51.206;6.888;2023-11-21T00:02:44;10.93;;;8.07;;
5245;SDS011;54412;51.206;6.888;2023-11-21T00:05:11;12.00;;;9.83;;
5245;SDS011;54412;51.206;6.888;2023-11-21T00:07:39;11.27;;;8.33;;
5245;SDS011;54412;51.206;6.888;2023-11-21T00:10:06;10.97;;;8.63;;
5245;SDS011;54412;51.206;6.888;2023-11-21T00:12:33;14.70;;;9.30;;
5245;SDS011;54412;51.206;6.888;2023-11-21T00:14:59;13.10;;;9.13;;
5245;SDS011;54412;51.206;6.888;2023-11-21T00:17:27;13.87;;;8.60;;
5245;SDS011;54412;51.206;6.888;2023-11-21T00:19:52;13.60;;;8.40;;
5245;SDS011;54412;51.206;6.888;2023-11-21T00:22:18;10.53;;;8.33;;
5245;SDS011;54412;51.206;6.888;2023-11-21T00:24:45;13.90;;;8.73;;
5245;SDS011;54412;51.206;6.888;2023-11-21T00:27:11;11.27;;;8.03;;
5245;SDS011;54412;51.206;6.888;2023-11-21T00:29:37;21.03;;;9.30;;
5245;SDS011;54412;51.206;6.888;2023-11-21T00:32:06;10.03;;;8.07;;
5245;SDS011;54412;51.206;6.888;2023-11-21T00:34:32;8.90;;;7.97;;
5245;SDS011;54412;51.206;6.888;2023-11-21T00:36:58;15.43;;;7.50;;
5245;SDS011;54412;51.206;6.888;2023-11-21T00:39:24;10.93;;;8.80;;
5245;SDS011;54412;51.206;6.888;2023-11-21T00:41:51;13.17;;;8.60;;
5245;SDS011;54412;51.206;6.888;2023-11-21T00:44:17;11.20;;;8.30;;
5245;SDS011;54412;51.206;6.888;2023-11-21T00:46:42;13.07;;;9.07;;
5245;SDS011;54412;51.206;6.888;2023-11-21T00:49:08;15.20;;;9.23;;
5245;SDS011;54412;51.206;6.888;2023-11-21T00:51:34;19.20;;;9.40;;
5245;SDS011;54412;51.206;6.888;2023-11-21T00:53:59;15.50;;;9.80;;
5245;SDS011;54412;51.206;6.888;2023-11-21T00:56:26;12.90;;;9.07;;
5245;SDS011;54412;51.206;6.888;2023-11-21T00:58:52;14.20;;;9.70;;
5245;SDS011;54412;51.206;6.888;2023-11-21T01:01:19;11.03;;;8.20;;
5245;SDS011;54412;51.206;6.888;2023-11-21T01:03:45;17.77;;;10.00;;
5245;SDS011;54412;51.206;6.888;2023-11-21T01:06:12;11.80;;;8.83;;
5245;SDS011;54412;51.206;6.888;2023-11-21T01:08:37;12.53;;;9.13;;
5245;SDS011;54412;51.206;6.888;2023-11-21T01:11:03;14.50;;;9.73;;
5245;SDS011;54412;51.206;6.888;2023-11-21T01:13:32;23.00;;;10.97;;
5245;SDS011;54412;51.206;6.888;2023-11-21T01:15:58;14.73;;;9.87;;
5245;SDS011;54412;51.206;6.888;2023-11-21T01:18:23;10.60;;;9.00;;
5245;SDS011;54412;51.206;6.888;2023-11-21T01:20:50;14.33;;;8.43;;
5245;SDS011;54412;51.206;6.888;2023-11-21T01:23:18;12.80;;;9.50;;
5245;SDS011;54412;51.206;6.888;2023-11-21T01:25:44;14.30;;;8.80;;
5245;SDS011;54412;51.206;6.888;2023-11-21T01:28:10;12.63;;;10.27;;
5245;SDS011;54412;51.206;6.888;2023-11-21T01:30:36;16.67;;;10.17;;
5245;SDS011;54412;51.206;6.888;2023-11-21T01:33:02;17.37;;;10.20;;
5245;SDS011;54412;51.206;6.888;2023-11-21T01:35:28;22.23;;;9.73;;
5245;SDS011;54412;51.206;6.888;2023-11-21T01:37:54;17.70;;;10.20;;
5245;SDS011;54412;51.206;6.888;2023-11-21T01:40:20;14.23;;;10.20;;
5245;SDS011;54412;51.206;6.888;2023-11-21T01:42:46;11.90;;;9.00;;
5245;SDS011;54412;51.206;6.888;2023-11-21T01:45:12;11.50;;;8.70;;
5245;SDS011;54412;51.206;6.888;2023-11-21T01:47:40;13.07;;;9.63;;
5245;SDS011;54412;51.206;6.888;2023-11-21T01:50:07;15.37;;;10.20;;
5245;SDS011;54412;51.206;6.888;2023-11-21T01:52:39;13.67;;;9.53;;
5245;SDS011;54412;51.206;6.888;2023-11-21T01:55:06;16.37;;;9.97;;
5245;SDS011;54412;51.206;6.888;2023-11-21T01:57:35;14.37;;;9.70;;
5245;SDS011;54412;51.206;6.888;2023-11-21T02:00:04;14.63;;;10.20;;
5245;SDS011;54412;51.206;6.888;2023-11-21T02:02:41;11.80;;;8.43;;
5245;SDS011;54412;51.206;6.888;2023-11-21T02:05:09;15.67;;;9.40;;
5245;SDS011;54412;51.206;6.888;2023-11-21T02:07:43;16.23;;;8.33;;
5245;SDS011;54412;51.206;6.888;2023-11-21T02:10:12;11.27;;;9.80;;
5245;SDS011;54412;51.206;6.888;2023-11-21T02:12:40;15.43;;;9.70;;
5245;SDS011;54412;51.206;6.888;2023-11-21T02:15:07;15.73;;;10.23;;
5245;SDS011;54412;51.206;6.888;2023-11-21T02:17:43;12.23;;;9.20;;
5245;SDS011;54412;51.206;6.888;2023-11-21T02:20:11;17.07;;;9.87;;
5245;SDS011;54412;51.206;6.888;2023-11-21T02:22:40;11.90;;;10.37;;
5245;SDS011;54412;51.206;6.888;2023-11-21T02:25:07;13.20;;;10.13;;
5245;SDS011;54412;51.206;6.888;2023-11-21T02:27:34;15.27;;;10.40;;
5245;SDS011;54412;51.206;6.888;2023-11-21T02:29:59;19.23;;;10.30;;
5245;SDS011;54412;51.206;6.888;2023-11-21T02:32:26;13.50;;;10.07;;
5245;SDS011;54412;51.206;6.888;2023-11-21T02:34:52;16.87;;;10.70;;
5245;SDS011;54412;51.206;6.888;2023-11-21T02:37:20;14.63;;;9.93;;
5245;SDS011;54412;51.206;6.888;2023-11-21T02:39:46;17.80;;;9.80;;
5245;SDS011;54412;51.206;6.888;2023-11-21T02:42:12;14.37;;;10.37;;
5245;SDS011;54412;51.206;6.888;2023-11-21T02:44:37;17.63;;;10.00;;
5245;SDS011;54412;51.206;6.888;2023-11-21T02:47:03;11.83;;;10.00;;
5245;SDS011;54412;51.206;6.888;2023-11-21T02:49:29;15.83;;;11.10;;
5245;SDS011;54412;51.206;6.888;2023-11-21T02:51:55;15.50;;;9.30;;
5245;SDS011;54412;51.206;6.888;2023-11-21T02:54:21;13.80;;;10.33;;
5245;SDS011;54412;51.206;6.888;2023-11-21T02:56:47;18.50;;;11.23;;
5245;SDS011;54412;51.206;6.888;2023-11-21T02:59:14;15.10;;;10.50;;
5245;SDS011;54412;51.206;6.888;2023-11-21T03:01:41;14.43;;;10.03;;
5245;SDS011;54412;51.206;6.888;2023-11-21T03:04:06;18.27;;;11.60;;
5245;SDS011;54412;51.206;6.888;2023-11-21T03:06:32;13.43;;;10.83;;
5245;SDS011;54412;51.206;6.888;2023-11-21T03:08:58;23.93;;;12.30;;
5245;SDS011;54412;51.206;6.888;2023-11-21T03:11:24;16.43;;;11.37;;
5245;SDS011;54412;51.206;6.888;2023-11-21T03:13:50;15.53;;;10.87;;
5245;SDS011;54412;51.206;6.888;2023-11-21T03:16:16;18.33;;;11.40;;
5245;SDS011;54412;51.206;6.888;2023-11-21T03:18:42;15.00;;;11.50;;
5245;SDS011;54412;51.206;6.888;2023-11-21T03:21:07;20.33;;;11.10;;
5245;SDS011;54412;51.206;6.888;2023-11-21T03:23:36;16.23;;;12.47;;
5245;SDS011;54412;51.206;6.888;2023-11-21T03:26:02;18.27;;;11.67;;
5245;SDS011;54412;51.206;6.888;2023-11-21T03:28:28;19.03;;;11.77;;
5245;SDS011;54412;51.206;6.888;2023-11-21T03:30:55;21.60;;;10.53;;
5245;SDS011;54412;51.206;6.888;2023-11-21T03:33:21;15.90;;;11.30;;
5245;SDS011;54412;51.206;6.888;2023-11-21T03:35:47;21.40;;;11.40;;
5245;SDS011;54412;51.206;6.888;2023-11-21T03:38:14;18.50;;;11.10;;
5245;SDS011;54412;51.206;6.888;2023-11-21T03:40:41;17.60;;;10.93;;
5245;SDS011;54412;51.206;6.888;2023-11-21T03:43:07;13.83;;;9.70;;
5245;SDS011;54412;51.206;6.888;2023-11-21T03:45:32;11.23;;;9.53;;
5245;SDS011;54412;51.206;6.888;2023-11-21T03:47:58;21.27;;;10.57;;
5245;SDS011;54412;51.206;6.888;2023-11-21T03:50:26;17.73;;;11.23;;
5245;SDS011;54412;51.206;6.888;2023-11-21T03:52:54;19.77;;;10.80;;
5245;SDS011;54412;51.206;6.888;2023-11-21T03:55:19;20.60;;;11.03;;
5245;SDS011;54412;51.206;6.888;2023-11-21T03:57:45;20.27;;;10.00;;
5245;SDS011;54412;51.206;6.888;2023-11-21T04:00:11;17.10;;;10.50;;
5245;SDS011;54412;51.206;6.888;2023-11-21T04:02:37;18.57;;;10.80;;
5245;SDS011;54412;51.206;6.888;2023-11-21T04:05:04;15.20;;;11.30;;
5245;SDS011;54412;51.206;6.888;2023-11-21T04:07:32;16.60;;;10.33;;
5245;SDS011;54412;51.206;6.888;2023-11-21T04:09:57;15.03;;;10.00;;
5245;SDS011;54412;51.206;6.888;2023-11-21T04:12:24;20.30;;;10.17;;
5245;SDS011;54412;51.206;6.888;2023-11-21T04:14:50;16.37;;;11.20;;
5245;SDS011;54412;51.206;6.888;2023-11-21T04:17:17;13.67;;;10.20;;
5245;SDS011;54412;51.206;6.888;2023-11-21T04:19:44;17.10;;;10.43;;
5245;SDS011;54412;51.206;6.888;2023-11-21T04:22:11;19.33;;;10.63;;
5245;SDS011;54412;51.206;6.888;2023-11-21T04:24:36;14.57;;;9.83;;
5245;SDS011;54412;51.206;6.888;2023-11-21T04:27:02;11.37;;;9.37;;
5245;SDS011;54412;51.206;6.888;2023-11-21T04:29:28;17.70;;;9.47;;
5245;SDS011;54412;51.206;6.888;2023-11-21T04:31:54;15.40;;;10.30;;
5245;SDS011;54412;51.206;6.888;2023-11-21T04:34:20;28.10;;;10.27;;
5245;SDS011;54412;51.206;6.888;2023-11-21T04:36:46;15.60;;;9.30;;
5245;SDS011;54412;51.206;6.888;2023-11-21T04:39:11;16.27;;;10.27;;
5245;SDS011;54412;51.206;6.888;2023-11-21T04:41:37;16.57;;;10.60;;
5245;SDS011;54412;51.206;6.888;2023-11-21T04:44:04;14.93;;;10.17;;
5245;SDS011;54412;51.206;6.888;2023-11-21T04:46:31;11.60;;;9.80;;
5245;SDS011;54412;51.206;6.888;2023-11-21T04:48:57;13.17;;;10.33;;
5245;SDS011;54412;51.206;6.888;2023-11-21T04:51:23;15.93;;;11.47;;
5245;SDS011;54412;51.206;6.888;2023-11-21T04:53:49;16.70;;;10.57;;
5245;SDS011;54412;51.206;6.888;2023-11-21T04:56:15;14.93;;;9.43;;
5245;SDS011;54412;51.206;6.888;2023-11-21T04:58:43;15.93;;;10.73;;
5245;SDS011;54412;51.206;6.888;2023-11-21T05:01:10;12.53;;;9.53;;
5245;SDS011;54412;51.206;6.888;2023-11-21T05:03:36;16.33;;;9.60;;
5245;SDS011;54412;51.206;6.888;2023-11-21T05:06:03;18.80;;;10.87;;
5245;SDS011;54412;51.206;6.888;2023-11-21T05:08:30;15.63;;;10.43;;
5245;SDS011;54412;51.206;6.888;2023-11-21T05:10:56;13.70;;;9.77;;
5245;SDS011;54412;51.206;6.888;2023-11-21T05:13:22;15.13;;;11.07;;
5245;SDS011;54412;51.206;6.888;2023-11-21T05:15:52;29.13;;;12.33;;
5245;SDS011;54412;51.206;6.888;2023-11-21T05:18:20;20.33;;;12.27;;
5245;SDS011;54412;51.206;6.888;2023-11-21T05:20:45;19.50;;;12.40;;
5245;SDS011;54412;51.206;6.888;2023-11-21T05:23:12;21.40;;;13.00;;
5245;SDS011;54412;51.206;6.888;2023-11-21T05:25:38;22.53;;;10.83;;
5245;SDS011;54412;51.206;6.888;2023-11-21T05:28:03;17.63;;;11.80;;
5245;SDS011;54412;51.206;6.888;2023-11-21T05:30:29;15.00;;;10.70;;
5245;SDS011;54412;51.206;6.888;2023-11-21T05:32:55;18.03;;;10.67;;
5245;SDS011;54412;51.206;6.888;2023-11-21T05:35:20;19.90;;;11.47;;
5245;SDS011;54412;51.206;6.888;2023-11-21T05:37:46;14.87;;;11.47;;
5245;SDS011;54412;51.206;6.888;2023-11-21T05:40:12;27.37;;;10.83;;
5245;SDS011;54412;51.206;6.888;2023-11-21T05:42:38;24.30;;;11.87;;
5245;SDS011;54412;51.206;6.888;2023-11-21T05:45:05;16.67;;;11.63;;
5245;SDS011;54412;51.206;6.888;2023-11-21T05:47:40;21.50;;;12.17;;
5245;SDS011;54412;51.206;6.888;2023-11-21T05:50:07;28.90;;;19.73;;
5245;SDS011;54412;51.206;6.888;2023-11-21T05:52:39;29.30;;;20.17;;
5245;SDS011;54412;51.206;6.888;2023-11-21T05:55:09;30.23;;;18.50;;
5245;SDS011;54412;51.206;6.888;2023-11-21T05:57:35;24.27;;;19.07;;
5245;SDS011;54412;51.206;6.888;2023-11-21T06:00:06;24.50;;;15.60;;
5245;SDS011;54412;51.206;6.888;2023-11-21T06:02:36;17.80;;;12.40;;
5245;SDS011;54412;51.206;6.888;2023-11-21T06:05:04;24.70;;;13.13;;
5245;SDS011;54412;51.206;6.888;2023-11-21T06:07:32;15.60;;;11.80;;
5245;SDS011;54412;51.206;6.888;2023-11-21T06:09:57;18.27;;;12.00;;
5245;SDS011;54412;51.206;6.888;2023-11-21T06:12:23;12.40;;;10.10;;
5245;SDS011;54412;51.206;6.888;2023-11-21T06:14:49;18.60;;;11.00;;
5245;SDS011;54412;51.206;6.888;2023-11-21T06:17:14;18.10;;;11.10;;
5245;SDS011;54412;51.206;6.888;2023-11-21T06:19:40;17.13;;;12.40;;
5245;SDS011;54412;51.206;6.888;2023-11-21T06:22:06;20.23;;;12.20;;
5245;SDS011;54412;51.206;6.888;2023-11-21T06:24:31;16.60;;;12.07;;
5245;SDS011;54412;51.206;6.888;2023-11-21T06:26:57;16.63;;;12.10;;
5245;SDS011;54412;51.206;6.888;2023-11-21T06:29:23;18.50;;;12.03;;
5245;SDS011;54412;51.206;6.888;2023-11-21T06:31:49;18.13;;;12.47;;
5245;SDS011;54412;51.206;6.888;2023-11-21T06:34:15;18.70;;;12.53;;
5245;SDS011;54412;51.206;6.888;2023-11-21T06:36:40;17.00;;;12.40;;
5245;SDS011;54412;51.206;6.888;2023-11-21T06:39:06;19.73;;;14.00;;
5245;SDS011;54412;51.206;6.888;2023-11-21T06:41:33;19.53;;;13.57;;
5245;SDS011;54412;51.206;6.888;2023-11-21T06:43:59;28.23;;;17.20;;
5245;SDS011;54412;51.206;6.888;2023-11-21T06:46:25;38.63;;;25.63;;
5245;SDS011;54412;51.206;6.888;2023-11-21T06:48:51;34.53;;;23.77;;
5245;SDS011;54412;51.206;6.888;2023-11-21T06:51:17;24.40;;;17.30;;
5245;SDS011;54412;51.206;6.888;2023-11-21T06:53:42;22.47;;;14.33;;
5245;SDS011;54412;51.206;6.888;2023-11-21T06:56:17;19.27;;;13.40;;
5245;SDS011;54412;51.206;6.888;2023-11-21T06:58:46;24.83;;;13.53;;
5245;SDS011;54412;51.206;6.888;2023-11-21T07:01:12;22.07;;;13.70;;
5245;SDS011;54412;51.206;6.888;2023-11-21T07:03:38;22.37;;;14.80;;
5245;SDS011;54412;51.206;6.888;2023-11-21T07:06:04;18.93;;;13.77;;
5245;SDS011;54412;51.206;6.888;2023-11-21T07:12:02;25.17;;;13.50;;
5245;SDS011;54412;51.206;6.888;2023-11-21T07:14:28;21.63;;;14.13;;
5245;SDS011;54412;51.206;6.888;2023-11-21T07:16:54;21.93;;;15.37;;
5245;SDS011;54412;51.206;6.888;2023-11-21T07:19:20;22.43;;;14.67;;
5245;SDS011;54412;51.206;6.888;2023-11-21T07:21:46;28.70;;;15.27;;
5245;SDS011;54412;51.206;6.888;2023-11-21T07:24:15;27.63;;;15.20;;
5245;SDS011;54412;51.206;6.888;2023-11-21T07:26:41;19.13;;;14.10;;
5245;SDS011;54412;51.206;6.888;2023-11-21T07:29:07;24.00;;;13.80;;
5245;SDS011;54412;51.206;6.888;2023-11-21T07:31:33;21.37;;;13.13;;
5245;SDS011;54412;51.206;6.888;2023-11-21T07:33:59;20.10;;;13.97;;
5245;SDS011;54412;51.206;6.888;2023-11-21T07:36:25;22.60;;;14.70;;
5245;SDS011;54412;51.206;6.888;2023-11-21T07:38:52;22.27;;;15.07;;
5245;SDS011;54412;51.206;6.888;2023-11-21T07:41:18;28.70;;;15.57;;
5245;SDS011;54412;51.206;6.888;2023-11-21T07:43:44;26.10;;;15.23;;
5245;SDS011;54412;51.206;6.888;2023-11-21T07:46:10;24.47;;;14.97;;
5245;SDS011;54412;51.206;6.888;2023-11-21T07:48:40;20.73;;;15.10;;
5245;SDS011;54412;51.206;6.888;2023-11-21T07:51:07;30.13;;;15.10;;
5245;SDS011;54412;51.206;6.888;2023-11-21T07:53:34;24.37;;;15.47;;
5245;SDS011;54412;51.206;6.888;2023-11-21T07:56:07;26.60;;;17.70;;
5245;SDS011;54412;51.206;6.888;2023-11-21T07:58:34;28.80;;;17.47;;
5245;SDS011;54412;51.206;6.888;2023-11-21T08:01:02;30.90;;;18.10;;
5245;SDS011;54412;51.206;6.888;2023-11-21T08:03:29;25.80;;;16.27;;
5245;SDS011;54412;51.206;6.888;2023-11-21T08:05:58;29.00;;;17.33;;
5245;SDS011;54412;51.206;6.888;2023-11-21T08:08:24;28.80;;;17.33;;
5245;SDS011;54412;51.206;6.888;2023-11-21T08:10:52;37.93;;;18.30;;
5245;SDS011;54412;51.206;6.888;2023-11-21T08:13:25;29.20;;;17.00;;
5245;SDS011;54412;51.206;6.888;2023-11-21T08:15:55;32.43;;;18.67;;
5245;SDS011;54412;51.206;6.888;2023-11-21T08:18:30;37.90;;;20.33;;
5245;SDS011;54412;51.206;6.888;2023-11-21T08:20:56;34.50;;;21.07;;
5245;SDS011;54412;51.206;6.888;2023-11-21T08:23:22;40.40;;;20.33;;
5245;SDS011;54412;51.206;6.888;2023-11-21T08:25:51;34.97;;;19.50;;
5245;SDS011;54412;51.206;6.888;2023-11-21T08:28:18;41.27;;;22.40;;
5245;SDS011;54412;51.206;6.888;2023-11-21T08:30:50;37.73;;;19.60;;
5245;SDS011;54412;51.206;6.888;2023-11-21T08:33:17;39.90;;;20.60;;
5245;SDS011;54412;51.206;6.888;2023-11-21T08:35:43;34.80;;;20.87;;
5245;SDS011;54412;51.206;6.888;2023-11-21T08:38:10;34.07;;;19.60;;
5245;SDS011;54412;51.206;6.888;2023-11-21T08:40:37;45.60;;;22.17;;
5245;SDS011;54412;51.206;6.888;2023-11-21T08:43:03;41.43;;;21.37;;
5245;SDS011;54412;51.206;6.888;2023-11-21T08:45:33;41.13;;;22.10;;
5245;SDS011;54412;51.206;6.888;2023-11-21T08:47:59;38.67;;;20.90;;
5245;SDS011;54412;51.206;6.888;2023-11-21T08:50:25;38.70;;;20.80;;
5245;SDS011;54412;51.206;6.888;2023-11-21T08:52:51;46.27;;;22.23;;
5245;SDS011;54412;51.206;6.888;2023-11-21T08:55:17;45.87;;;22.67;;
5245;SDS011;54412;51.206;6.888;2023-11-21T08:57:44;40.43;;;21.30;;
5245;SDS011;54412;51.206;6.888;2023-11-21T09:00:11;40.80;;;20.00;;
5245;SDS011;54412;51.206;6.888;2023-11-21T09:02:40;39.17;;;20.60;;
5245;SDS011;54412;51.206;6.888;2023-11-21T09:05:07;38.57;;;21.53;;
5245;SDS011;54412;51.206;6.888;2023-11-21T09:07:36;44.67;;;22.80;;
5245;SDS011;54412;51.206;6.888;2023-11-21T09:10:03;50.17;;;24.50;;
5245;SDS011;54412;51.206;6.888;2023-11-21T09:12:32;47.23;;;24.17;;
5245;SDS011;54412;51.206;6.888;2023-11-21T09:15:02;46.73;;;23.43;;
5245;SDS011;54412;51.206;6.888;2023-11-21T09:17:29;54.90;;;25.60;;
5245;SDS011;54412;51.206;6.888;2023-11-21T09:19:55;43.63;;;23.47;;
5245;SDS011;54412;51.206;6.888;2023-11-21T09:22:22;38.83;;;22.10;;
5245;SDS011;54412;51.206;6.888;2023-11-21T09:24:49;44.47;;;22.33;;
5245;SDS011;54412;51.206;6.888;2023-11-21T09:27:16;43.77;;;23.70;;
5245;SDS011;54412;51.206;6.888;2023-11-21T09:29:42;52.70;;;24.40;;
5245;SDS011;54412;51.206;6.888;2023-11-21T09:32:08;52.63;;;22.77;;
5245;SDS011;54412;51.206;6.888;2023-11-21T09:34:39;46.47;;;24.00;;
5245;SDS011;54412;51.206;6.888;2023-11-21T09:37:05;49.30;;;21.97;;
5245;SDS011;54412;51.206;6.888;2023-11-21T09:39:32;43.93;;;24.10;;
5245;SDS011;54412;51.206;6.888;2023-11-21T09:42:04;43.67;;;22.27;;
5245;SDS011;54412;51.206;6.888;2023-11-21T09:44:40;43.77;;;22.60;;
5245;SDS011;54412;51.206;6.888;2023-11-21T09:47:11;43.57;;;23.20;;
5245;SDS011;54412;51.206;6.888;2023-11-21T09:49:41;45.87;;;23.73;;
5245;SDS011;54412;51.206;6.888;2023-11-21T09:52:13;41.80;;;23.63;;
5245;SDS011;54412;51.206;6.888;2023-11-21T09:54:50;40.23;;;20.20;;
5245;SDS011;54412;51.206;6.888;2023-11-21T09:57:19;39.67;;;21.47;;
5245;SDS011;54412;51.206;6.888;2023-11-21T09:59:52;37.47;;;22.10;;
5245;SDS011;54412;51.206;6.888;2023-11-21T10:02:27;40.33;;;20.73;;
5245;SDS011;54412;51.206;6.888;2023-11-21T10:04:58;43.70;;;20.90;;
5245;SDS011;54412;51.206;6.888;2023-11-21T10:07:25;45.20;;;21.47;;
5245;SDS011;54412;51.206;6.888;2023-11-21T10:09:52;44.80;;;22.60;;
5245;SDS011;54412;51.206;6.888;2023-11-21T10:12:19;38.87;;;23.47;;
5245;SDS011;54412;51.206;6.888;2023-11-21T10:14:47;44.97;;;22.93;;
5245;SDS011;54412;51.206;6.888;2023-11-21T10:17:14;43.90;;;23.10;;
5245;SDS011;54412;51.206;6.888;2023-11-21T10:19:43;47.53;;;24.07;;
5245;SDS011;54412;51.206;6.888;2023-11-21T10:22:15;43.83;;;22.07;;
5245;SDS011;54412;51.206;6.888;2023-11-21T10:24:42;43.87;;;23.33;;
5245;SDS011;54412;51.206;6.888;2023-11-21T10:27:08;42.23;;;24.00;;
5245;SDS011;54412;51.206;6.888;2023-11-21T10:33:15;47.27;;;22.47;;
5245;SDS011;54412;51.206;6.888;2023-11-21T10:38:07;55.87;;;26.27;;
5245;SDS011;54412;51.206;6.888;2023-11-21T10:40:38;46.17;;;24.10;;
5245;SDS011;54412;51.206;6.888;2023-11-21T10:43:06;51.17;;;25.80;;
5245;SDS011;54412;51.206;6.888;2023-11-21T10:45:34;52.73;;;26.80;;
5245;SDS011;54412;51.206;6.888;2023-11-21T10:48:10;55.70;;;29.37;;
5245;SDS011;54412;51.206;6.888;2023-11-21T10:50:43;54.17;;;27.40;;
5245;SDS011;54412;51.206;6.888;2023-11-21T10:53:12;56.00;;;30.40;;
5245;SDS011;54412;51.206;6.888;2023-11-21T10:55:38;65.70;;;29.50;;
5245;SDS011;54412;51.206;6.888;2023-11-21T10:58:04;60.90;;;27.80;;
5245;SDS011;54412;51.206;6.888;2023-11-21T11:00:32;60.27;;;28.60;;
5245;SDS011;54412;51.206;6.888;2023-11-21T11:02:59;58.10;;;30.10;;
5245;SDS011;54412;51.206;6.888;2023-11-21T11:05:26;59.93;;;30.23;;
5245;SDS011;54412;51.206;6.888;2023-11-21T11:08:07;59.70;;;31.50;;
5245;SDS011;54412;51.206;6.888;2023-11-21T11:10:37;62.23;;;31.60;;
5245;SDS011;54412;51.206;6.888;2023-11-21T11:13:03;72.97;;;32.10;;
5245;SDS011;54412;51.206;6.888;2023-11-21T11:15:32;64.43;;;33.13;;
5245;SDS011;54412;51.206;6.888;2023-11-21T11:17:58;63.73;;;32.50;;
5245;SDS011;54412;51.206;6.888;2023-11-21T11:20:34;64.33;;;30.70;;
5245;SDS011;54412;51.206;6.888;2023-11-21T11:26:22;61.33;;;30.33;;
5245;SDS011;54412;51.206;6.888;2023-11-21T11:31:58;61.27;;;29.37;;
5245;SDS011;54412;51.206;6.888;2023-11-21T11:34:44;56.70;;;30.03;;
5245;SDS011;54412;51.206;6.888;2023-11-21T11:37:18;64.33;;;28.70;;
5245;SDS011;54412;51.206;6.888;2023-11-21T11:39:45;56.20;;;28.57;;
5245;SDS011;54412;51.206;6.888;2023-11-21T11:42:14;67.93;;;29.60;;
5245;SDS011;54412;51.206;6.888;2023-11-21T11:47:14;61.83;;;29.33;;
5245;SDS011;54412;51.206;6.888;2023-11-21T11:52:35;57.50;;;28.73;;
5245;SDS011;54412;51.206;6.888;2023-11-21T11:55:20;65.43;;;30.77;;
5245;SDS011;54412;51.206;6.888;2023-11-21T11:57:49;67.57;;;29.53;;
5245;SDS011;54412;51.206;6.888;2023-11-21T12:02:56;57.13;;;29.30;;
5245;SDS011;54412;51.206;6.888;2023-11-21T12:05:24;54.93;;;27.10;;
5245;SDS011;54412;51.206;6.888;2023-11-21T12:07:56;68.60;;;30.53;;
5245;SDS011;54412;51.206;6.888;2023-11-21T12:10:30;67.63;;;29.53;;
5245;SDS011;54412;51.206;6.888;2023-11-21T12:13:05;54.93;;;28.40;;
5245;SDS011;54412;51.206;6.888;2023-11-21T12:15:36;56.20;;;26.60;;
5245;SDS011;54412;51.206;6.888;2023-11-21T12:18:03;75.40;;;30.40;;
5245;SDS011;54412;51.206;6.888;2023-11-21T12:20:29;65.37;;;32.13;;
5245;SDS011;54412;51.206;6.888;2023-11-21T12:22:57;61.70;;;29.93;;
5245;SDS011;54412;51.206;6.888;2023-11-21T12:25:28;70.17;;;32.37;;
5245;SDS011;54412;51.206;6.888;2023-11-21T12:27:59;62.00;;;30.87;;
5245;SDS011;54412;51.206;6.888;2023-11-21T12:30:26;65.03;;;31.70;;
5245;SDS011;54412;51.206;6.888;2023-11-21T12:32:56;85.63;;;32.47;;
5245;SDS011;54412;51.206;6.888;2023-11-21T12:35:24;59.93;;;30.60;;
5245;SDS011;54412;51.206;6.888;2023-11-21T12:37:52;70.20;;;32.93;;
5245;SDS011;54412;51.206;6.888;2023-11-21T12:40:20;59.20;;;30.63;;
5245;SDS011;54412;51.206;6.888;2023-11-21T12:42:48;64.60;;;29.93;;
5245;SDS011;54412;51.206;6.888;2023-11-21T12:47:51;64.63;;;33.40;;
5245;SDS011;54412;51.206;6.888;2023-11-21T12:50:29;56.87;;;29.60;;
5245;SDS011;54412;51.206;6.888;2023-11-21T12:52:59;64.63;;;30.23;;
5245;SDS011;54412;51.206;6.888;2023-11-21T12:55:31;69.37;;;33.27;;
5245;SDS011;54412;51.206;6.888;2023-11-21T12:58:01;57.17;;;30.60;;
5245;SDS011;54412;51.206;6.888;2023-11-21T13:00:40;61.03;;;28.97;;
5245;SDS011;54412;51.206;6.888;2023-11-21T13:03:11;59.30;;;29.10;;
5245;SDS011;54412;51.206;6.888;2023-11-21T13:05:44;60.03;;;28.83;;
5245;SDS011;54412;51.206;6.888;2023-11-21T13:08:16;60.40;;;27.63;;
5245;SDS011;54412;51.206;6.888;2023-11-21T13:10:46;63.67;;;28.17;;
5245;SDS011;54412;51.206;6.888;2023-11-21T13:13:15;47.70;;;25.43;;
5245;SDS011;54412;51.206;6.888;2023-11-21T13:15:47;47.73;;;25.10;;
5245;SDS011;54412;51.206;6.888;2023-11-21T13:18:29;60.53;;;27.13;;
5245;SDS011;54412;51.206;6.888;2023-11-21T13:20:59;55.53;;;26.20;;
5245;SDS011;54412;51.206;6.888;2023-11-21T13:23:38;58.77;;;28.57;;
5245;SDS011;54412;51.206;6.888;2023-11-21T13:26:06;62.23;;;27.77;;
5245;SDS011;54412;51.206;6.888;2023-11-21T13:28:34;59.93;;;28.83;;
5245;SDS011;54412;51.206;6.888;2023-11-21T13:31:02;61.07;;;29.40;;
5245;SDS011;54412;51.206;6.888;2023-11-21T13:33:46;65.83;;;31.77;;
5245;SDS011;54412;51.206;6.888;2023-11-21T13:36:19;65.13;;;32.60;;
5245;SDS011;54412;51.206;6.888;2023-11-21T13:38:49;76.50;;;32.47;;
5245;SDS011;54412;51.206;6.888;2023-11-21T13:41:17;84.83;;;35.50;;
5245;SDS011;54412;51.206;6.888;2023-11-21T13:43:44;74.80;;;33.23;;
5245;SDS011;54412;51.206;6.888;2023-11-21T13:46:15;71.53;;;33.00;;
5245;SDS011;54412;51.206;6.888;2023-11-21T13:48:46;76.57;;;35.57;;
5245;SDS011;54412;51.206;6.888;2023-11-21T13:51:20;84.93;;;36.00;;
5245;SDS011;54412;51.206;6.888;2023-11-21T13:53:54;67.70;;;32.30;;
5245;SDS011;54412;51.206;6.888;2023-11-21T13:56:20;74.53;;;34.17;;
5245;SDS011;54412;51.206;6.888;2023-11-21T13:58:49;80.67;;;34.50;;
5245;SDS011;54412;51.206;6.888;2023-11-21T14:01:23;76.37;;;35.00;;
5245;SDS011;54412;51.206;6.888;2023-11-21T14:06:46;79.93;;;36.30;;
5245;SDS011;54412;51.206;6.888;2023-11-21T14:09:23;76.13;;;36.10;;
5245;SDS011;54412;51.206;6.888;2023-11-21T14:11:58;80.20;;;33.80;;
5245;SDS011;54412;51.206;6.888;2023-11-21T14:14:25;73.07;;;36.03;;
5245;SDS011;54412;51.206;6.888;2023-11-21T14:16:55;68.93;;;31.87;;
5245;SDS011;54412;51.206;6.888;2023-11-21T14:19:22;68.40;;;28.70;;
5245;SDS011;54412;51.206;6.888;2023-11-21T14:21:52;54.97;;;27.47;;
5245;SDS011;54412;51.206;6.888;2023-11-21T14:24:18;44.37;;;22.90;;
5245;SDS011;54412;51.206;6.888;2023-11-21T14:26:44;52.73;;;24.43;;
5245;SDS011;54412;51.206;6.888;2023-11-21T14:29:12;35.33;;;19.43;;
5245;SDS011;54412;51.206;6.888;2023-11-21T14:31:41;33.60;;;19.53;;
5245;SDS011;54412;51.206;6.888;2023-11-21T14:34:07;33.63;;;18.83;;
5245;SDS011;54412;51.206;6.888;2023-11-21T14:36:33;32.77;;;17.50;;
5245;SDS011;54412;51.206;6.888;2023-11-21T14:39:01;29.73;;;17.30;;
5245;SDS011;54412;51.206;6.888;2023-11-21T14:41:32;24.73;;;15.90;;
5245;SDS011;54412;51.206;6.888;2023-11-21T14:44:00;25.10;;;16.03;;
5245;SDS011;54412;51.206;6.888;2023-11-21T14:46:28;24.87;;;16.10;;
5245;SDS011;54412;51.206;6.888;2023-11-21T14:48:54;27.13;;;17.53;;
5245;SDS011;54412;51.206;6.888;2023-11-21T14:51:43;28.00;;;16.10;;
5245;SDS011;54412;51.206;6.888;2023-11-21T14:54:28;29.00;;;19.83;;
5245;SDS011;54412;51.206;6.888;2023-11-21T14:57:09;27.80;;;17.17;;
5245;SDS011;54412;51.206;6.888;2023-11-21T14:59:43;33.50;;;15.80;;
5245;SDS011;54412;51.206;6.888;2023-11-21T15:02:20;20.67;;;14.03;;
5245;SDS011;54412;51.206;6.888;2023-11-21T15:04:47;20.10;;;14.60;;
5245;SDS011;54412;51.206;6.888;2023-11-21T15:07:17;20.37;;;14.90;;
5245;SDS011;54412;51.206;6.888;2023-11-21T15:09:43;20.30;;;14.40;;